Time,TemperatureF,DewpointF,PressureIn,WindDirection,WindDirectionDegrees,WindSpeedMPH,WindSpeedGustMPH,Humidity,HourlyPrecipIn,Conditions,Clouds,dailyrainin,SolarRadiationWatts/m^2,SoftwareType,DateUTC
2013-02-10 00:02:00,41.0,38.0,-100.00,NW,314,5.0,10.0,88,0.01,,,0.03,0.000000,,2013-02-10 09:02:00,
2013-02-10 00:11:00,41.0,38.0,-100.00,NW,314,5.0,10.0,88,0.01,,,0.03,0.000000,,2013-02-10 09:11:00,
2013-02-10 00:21:00,41.0,38.0,-100.00,NW,314,5.0,10.0,88,0.01,,,0.03,0.000000,,2013-02-10 09:21:00,
2013-02-10 00:42:00,41.0,38.0,-100.00,NW,310,5.0,10.0,90,0.02,,,0.05,0.000000,,2013-02-10 09:42:00,
2013-02-10 00:52:00,41.0,38.0,-100.00,NW,310,5.0,10.0,90,0.02,,,0.05,0.000000,,2013-02-10 09:52:00,
2013-02-10 01:01:00,41.0,38.0,-100.00,NW,310,5.0,10.0,90,0.02,,,0.05,0.000000,,2013-02-10 10:01:00,
2013-02-10 01:11:00,41.0,38.0,-100.00,NW,310,5.0,10.0,90,0.02,,,0.05,0.000000,,2013-02-10 10:11:00,
2013-02-10 01:21:00,41.0,38.0,-100.00,NW,310,5.0,10.0,90,0.02,,,0.05,0.000000,,2013-02-10 10:21:00,
2013-02-10 01:42:00,39.0,36.0,-100.00,NW,314,4.0,9.0,89,0.03,,,0.08,0.000000,,2013-02-10 10:42:00,
2013-02-10 01:52:00,39.0,36.0,-100.00,NW,314,4.0,9.0,89,0.03,,,0.08,0.000000,,2013-02-10 10:52:00,
2013-02-10 02:01:00,39.0,36.0,-100.00,NW,314,4.0,9.0,89,0.03,,,0.08,0.000000,,2013-02-10 11:01:00,
2013-02-10 02:11:00,39.0,36.0,-100.00,NW,314,4.0,9.0,89,0.03,,,0.08,0.000000,,2013-02-10 11:11:00,
2013-02-10 02:21:00,39.0,36.0,-100.00,NW,314,4.0,9.0,89,0.03,,,0.08,0.000000,,2013-02-10 11:21:00,
2013-02-10 02:42:00,39.0,37.0,-100.00,NNW,330,4.0,8.0,91,0.02,,,0.10,0.000000,,2013-02-10 11:42:00,
2013-02-10 02:52:00,39.0,37.0,-100.00,NNW,330,4.0,8.0,91,0.02,,,0.10,0.000000,,2013-02-10 11:52:00,
2013-02-10 03:01:00,39.0,37.0,-100.00,NNW,330,4.0,8.0,91,0.02,,,0.10,0.000000,,2013-02-10 12:01:00,
2013-02-10 03:12:00,39.0,37.0,-100.00,NNW,330,4.0,8.0,91,0.02,,,0.10,0.000000,,2013-02-10 12:12:00,
2013-02-10 03:21:00,39.0,37.0,-100.00,NNW,330,4.0,8.0,91,0.02,,,0.10,0.000000,,2013-02-10 12:21:00,
2013-02-10 05:42:00,39.0,35.0,-100.00,NW,320,3.0,8.0,84,-99.99,,,0.00,0.000000,,2013-02-10 14:42:00,
2013-02-10 05:52:00,39.0,35.0,-100.00,NW,320,3.0,8.0,84,-99.99,,,0.00,0.000000,,2013-02-10 14:52:00,
2013-02-10 06:01:00,39.0,35.0,-100.00,NW,320,3.0,8.0,84,-99.99,,,0.00,0.000000,,2013-02-10 15:01:00,
2013-02-10 06:11:00,39.0,35.0,-100.00,NW,320,3.0,8.0,84,-99.99,,,0.00,0.000000,,2013-02-10 15:11:00,
2013-02-10 06:21:00,39.0,35.0,-100.00,NW,320,3.0,8.0,84,-99.99,,,0.00,0.000000,,2013-02-10 15:21:00,
2013-02-10 06:42:00,41.0,35.0,-100.00,NW,318,3.0,8.0,79,0.01,,,0.01,0.000000,,2013-02-10 15:42:00,
2013-02-10 06:52:00,41.0,35.0,-100.00,NW,318,3.0,8.0,79,0.01,,,0.01,0.000000,,2013-02-10 15:52:00,
2013-02-10 07:01:00,41.0,35.0,-100.00,NW,318,3.0,8.0,79,0.01,,,0.01,0.000000,,2013-02-10 16:01:00,
2013-02-10 07:11:00,41.0,35.0,-100.00,NW,318,3.0,8.0,79,0.01,,,0.01,0.000000,,2013-02-10 16:11:00,
2013-02-10 07:21:00,41.0,35.0,-100.00,NW,318,3.0,8.0,79,0.01,,,0.01,0.000000,,2013-02-10 16:21:00,
2013-02-10 07:42:00,41.0,36.0,-100.00,NW,309,4.0,9.0,83,-99.99,,,0.00,0.000000,,2013-02-10 16:42:00,
2013-02-10 07:52:00,41.0,36.0,-100.00,NW,309,4.0,9.0,83,-99.99,,,0.00,0.000000,,2013-02-10 16:52:00,
2013-02-10 08:01:00,41.0,36.0,-100.00,NW,309,4.0,9.0,83,-99.99,,,0.00,0.000000,,2013-02-10 17:01:00,
2013-02-10 08:11:00,41.0,36.0,-100.00,NW,309,4.0,9.0,83,-99.99,,,0.00,0.000000,,2013-02-10 17:11:00,
2013-02-10 08:21:00,41.0,36.0,-100.00,NW,309,4.0,9.0,83,-99.99,,,0.00,0.000000,,2013-02-10 17:21:00,
2013-02-10 08:42:00,41.0,35.0,-100.00,NNW,330,3.0,8.0,79,0.00,,,0.00,0.000000,,2013-02-10 17:42:00,
2013-02-10 08:52:00,41.0,35.0,-100.00,NNW,330,3.0,8.0,79,0.00,,,0.00,0.000000,,2013-02-10 17:52:00,
2013-02-10 09:01:00,41.0,35.0,-100.00,NNW,330,3.0,8.0,79,0.00,,,0.00,0.000000,,2013-02-10 18:01:00,
2013-02-10 09:11:00,41.0,35.0,-100.00,NNW,330,3.0,8.0,79,0.00,,,0.00,0.000000,,2013-02-10 18:11:00,
2013-02-10 09:21:00,41.0,35.0,-100.00,NNW,330,3.0,8.0,79,0.00,,,0.00,0.000000,,2013-02-10 18:21:00,
2013-02-10 09:42:00,41.0,35.0,-100.00,NW,321,3.0,7.0,80,0.00,,,0.00,10.000000,,2013-02-10 18:42:00,
2013-02-10 09:52:00,41.0,35.0,-100.00,NW,321,3.0,7.0,80,0.00,,,0.00,10.000000,,2013-02-10 18:52:00,
2013-02-10 10:01:00,41.0,35.0,-100.00,NW,321,3.0,7.0,80,0.00,,,0.00,10.000000,,2013-02-10 19:01:00,
2013-02-10 10:11:00,41.0,35.0,-100.00,NW,321,3.0,7.0,80,0.00,,,0.00,10.000000,,2013-02-10 19:11:00,
2013-02-10 10:21:00,41.0,35.0,-100.00,NW,321,3.0,7.0,80,0.00,,,0.00,10.000000,,2013-02-10 19:21:00,
2013-02-10 10:43:00,41.0,34.0,-100.00,NW,318,4.0,8.0,76,0.00,,,0.00,25.000000,,2013-02-10 19:43:00,
2013-02-10 10:52:00,41.0,34.0,-100.00,NW,318,4.0,8.0,76,0.00,,,0.00,25.000000,,2013-02-10 19:52:00,
2013-02-10 11:01:00,41.0,34.0,-100.00,NW,318,4.0,8.0,76,0.00,,,0.00,25.000000,,2013-02-10 20:01:00,
2013-02-10 11:11:00,41.0,34.0,-100.00,NW,318,4.0,8.0,76,0.00,,,0.00,25.000000,,2013-02-10 20:11:00,
2013-02-10 11:21:00,41.0,34.0,-100.00,NW,318,4.0,8.0,76,0.00,,,0.00,25.000000,,2013-02-10 20:21:00,
2013-02-10 11:42:00,41.0,33.0,-100.00,NW,322,4.0,12.0,74,0.00,,,0.00,75.000000,,2013-02-10 20:42:00,
2013-02-10 11:52:00,41.0,33.0,-100.00,NW,322,4.0,12.0,74,0.00,,,0.00,75.000000,,2013-02-10 20:52:00,
2013-02-10 12:02:00,41.0,33.0,-100.00,NW,322,4.0,12.0,74,0.00,,,0.00,75.000000,,2013-02-10 21:02:00,
2013-02-10 12:11:00,41.0,33.0,-100.00,NW,322,4.0,12.0,74,0.00,,,0.00,75.000000,,2013-02-10 21:11:00,
2013-02-10 12:21:00,41.0,33.0,-100.00,NW,322,4.0,12.0,74,0.00,,,0.00,75.000000,,2013-02-10 21:21:00,
2013-02-10 12:42:00,41.0,33.0,-100.00,NW,320,4.0,7.0,73,0.00,,,0.00,85.000000,,2013-02-10 21:42:00,
2013-02-10 12:52:00,41.0,33.0,-100.00,NW,320,4.0,7.0,73,0.00,,,0.00,85.000000,,2013-02-10 21:52:00,
2013-02-10 13:01:00,41.0,33.0,-100.00,NW,320,4.0,7.0,73,0.00,,,0.00,85.000000,,2013-02-10 22:01:00,
2013-02-10 13:11:00,41.0,33.0,-100.00,NW,320,4.0,7.0,73,0.00,,,0.00,85.000000,,2013-02-10 22:11:00,
2013-02-10 13:21:00,41.0,33.0,-100.00,NW,320,4.0,7.0,73,0.00,,,0.00,85.000000,,2013-02-10 22:21:00,
2013-02-10 13:42:00,41.0,32.0,-100.00,NW,321,4.0,11.0,69,0.00,,,0.00,91.000000,,2013-02-10 22:42:00,
2013-02-10 13:52:00,41.0,32.0,-100.00,NW,321,4.0,11.0,69,0.00,,,0.00,91.000000,,2013-02-10 22:52:00,
2013-02-10 14:01:00,41.0,32.0,-100.00,NW,321,4.0,11.0,69,0.00,,,0.00,91.000000,,2013-02-10 23:01:00,
2013-02-10 14:11:00,41.0,32.0,-100.00,NW,321,4.0,11.0,69,0.00,,,0.00,91.000000,,2013-02-10 23:11:00,
2013-02-10 14:21:00,41.0,32.0,-100.00,NW,321,4.0,11.0,69,0.00,,,0.00,91.000000,,2013-02-10 23:21:00,
2013-02-10 14:42:00,41.0,33.0,-100.00,NW,325,3.0,6.0,72,0.00,,,0.00,65.000000,,2013-02-10 23:42:00,
2013-02-10 14:52:00,41.0,33.0,-100.00,NW,325,3.0,6.0,72,0.00,,,0.00,65.000000,,2013-02-10 23:52:00,
2013-02-10 15:01:00,41.0,33.0,-100.00,NW,325,3.0,6.0,72,0.00,,,0.00,65.000000,,2013-02-11 00:01:00,
2013-02-10 15:11:00,41.0,33.0,-100.00,NW,325,3.0,6.0,72,0.00,,,0.00,65.000000,,2013-02-11 00:11:00,
2013-02-10 15:21:00,41.0,33.0,-100.00,NW,325,3.0,6.0,72,0.00,,,0.00,65.000000,,2013-02-11 00:21:00,
2013-02-10 15:42:00,41.0,31.0,-100.00,NW,322,4.0,7.0,68,0.00,,,-99.99,42.000000,,2013-02-11 00:42:00,
2013-02-10 15:52:00,41.0,31.0,-100.00,NW,322,4.0,7.0,68,0.00,,,-99.99,42.000000,,2013-02-11 00:52:00,
2013-02-10 16:01:00,41.0,31.0,-100.00,NW,322,4.0,7.0,68,0.00,,,-99.99,42.000000,,2013-02-11 01:01:00,
2013-02-10 16:11:00,41.0,31.0,-100.00,NW,322,4.0,7.0,68,0.00,,,-99.99,42.000000,,2013-02-11 01:11:00,
2013-02-10 16:21:00,41.0,31.0,-100.00,NW,322,4.0,7.0,68,0.00,,,-99.99,42.000000,,2013-02-11 01:21:00,
2013-02-10 16:42:00,41.0,32.0,-100.00,NW,325,4.0,7.0,69,0.00,,,0.00,33.000000,,2013-02-11 01:42:00,
2013-02-10 16:52:00,41.0,32.0,-100.00,NW,325,4.0,7.0,69,0.00,,,0.00,33.000000,,2013-02-11 01:52:00,
2013-02-10 17:01:00,41.0,32.0,-100.00,NW,325,4.0,7.0,69,0.00,,,0.00,33.000000,,2013-02-11 02:01:00,
2013-02-10 17:11:00,41.0,32.0,-100.00,NW,325,4.0,7.0,69,0.00,,,0.00,33.000000,,2013-02-11 02:11:00,
2013-02-10 17:21:00,41.0,32.0,-100.00,NW,325,4.0,7.0,69,0.00,,,0.00,33.000000,,2013-02-11 02:21:00,
2013-02-10 17:42:00,41.0,30.0,-100.00,NW,308,4.0,8.0,65,0.00,,,0.00,7.000000,,2013-02-11 02:42:00,
2013-02-10 17:52:00,41.0,30.0,-100.00,NW,308,4.0,8.0,65,0.00,,,0.00,7.000000,,2013-02-11 02:52:00,
2013-02-10 18:01:00,41.0,30.0,-100.00,NW,308,4.0,8.0,65,0.00,,,0.00,7.000000,,2013-02-11 03:01:00,
2013-02-10 18:11:00,41.0,30.0,-100.00,NW,308,4.0,8.0,65,0.00,,,0.00,7.000000,,2013-02-11 03:11:00,
2013-02-10 18:21:00,41.0,30.0,-100.00,NW,308,4.0,8.0,65,0.00,,,0.00,7.000000,,2013-02-11 03:21:00,
2013-02-10 18:42:00,39.0,31.0,-100.00,NW,313,4.0,10.0,71,0.00,,,0.00,0.000000,,2013-02-11 03:42:00,
2013-02-10 18:52:00,39.0,31.0,-100.00,NW,313,4.0,10.0,71,0.00,,,0.00,0.000000,,2013-02-11 03:52:00,
2013-02-10 19:01:00,39.0,31.0,-100.00,NW,313,4.0,10.0,71,0.00,,,0.00,0.000000,,2013-02-11 04:01:00,
2013-02-10 19:11:00,39.0,31.0,-100.00,NW,313,4.0,10.0,71,0.00,,,0.00,0.000000,,2013-02-11 04:11:00,
2013-02-10 19:21:00,39.0,31.0,-100.00,NW,313,4.0,10.0,71,0.00,,,0.00,0.000000,,2013-02-11 04:21:00,
2013-02-10 19:42:00,39.0,30.0,-100.00,NW,321,4.0,10.0,69,0.00,,,0.00,0.000000,,2013-02-11 04:42:00,
2013-02-10 19:52:00,39.0,30.0,-100.00,NW,321,4.0,10.0,69,0.00,,,0.00,0.000000,,2013-02-11 04:52:00,
2013-02-10 20:01:00,39.0,30.0,-100.00,NW,321,4.0,10.0,69,0.00,,,0.00,0.000000,,2013-02-11 05:01:00,
2013-02-10 20:11:00,39.0,30.0,-100.00,NW,321,4.0,10.0,69,0.00,,,0.00,0.000000,,2013-02-11 05:11:00,
2013-02-10 20:22:00,39.0,30.0,-100.00,NW,321,4.0,10.0,69,0.00,,,0.00,0.000000,,2013-02-11 05:22:00,
2013-02-10 20:42:00,39.0,30.0,-100.00,NW,323,5.0,9.0,69,0.00,,,0.00,0.000000,,2013-02-11 05:42:00,
2013-02-10 20:52:00,39.0,30.0,-100.00,NW,323,5.0,9.0,69,0.00,,,0.00,0.000000,,2013-02-11 05:52:00,
2013-02-10 21:01:00,39.0,30.0,-100.00,NW,323,5.0,9.0,69,0.00,,,0.00,0.000000,,2013-02-11 06:01:00,
2013-02-10 21:11:00,39.0,30.0,-100.00,NW,323,5.0,9.0,69,0.00,,,0.00,0.000000,,2013-02-11 06:11:00,
2013-02-10 21:21:00,39.0,30.0,-100.00,NW,323,5.0,9.0,69,0.00,,,0.00,0.000000,,2013-02-11 06:21:00,
2013-02-10 21:42:00,39.0,30.0,-100.00,NW,308,5.0,9.0,69,0.00,,,0.00,0.000000,,2013-02-11 06:42:00,
2013-02-10 21:52:00,39.0,30.0,-100.00,NW,308,5.0,9.0,69,0.00,,,0.00,0.000000,,2013-02-11 06:52:00,
2013-02-10 22:01:00,39.0,30.0,-100.00,NW,308,5.0,9.0,69,0.00,,,0.00,0.000000,,2013-02-11 07:01:00,
2013-02-10 22:11:00,39.0,30.0,-100.00,NW,308,5.0,9.0,69,0.00,,,0.00,0.000000,,2013-02-11 07:11:00,
2013-02-10 22:21:00,39.0,30.0,-100.00,NW,308,5.0,9.0,69,0.00,,,0.00,0.000000,,2013-02-11 07:21:00,
2013-02-10 22:42:00,39.0,30.0,-100.00,NW,307,4.0,9.0,70,0.00,,,-99.99,0.000000,,2013-02-11 07:42:00,
2013-02-10 22:52:00,39.0,30.0,-100.00,NW,307,4.0,9.0,70,0.00,,,-99.99,0.000000,,2013-02-11 07:52:00,
2013-02-10 23:01:00,39.0,30.0,-100.00,NW,307,4.0,9.0,70,0.00,,,-99.99,0.000000,,2013-02-11 08:01:00,
2013-02-10 23:11:00,39.0,30.0,-100.00,NW,307,4.0,9.0,70,0.00,,,-99.99,0.000000,,2013-02-11 08:11:00,
2013-02-10 23:21:00,39.0,30.0,-100.00,NW,307,4.0,9.0,70,0.00,,,-99.99,0.000000,,2013-02-11 08:21:00,
2013-02-10 23:42:00,39.0,30.0,-100.00,NW,311,4.0,9.0,69,0.00,,,-99.99,0.000000,,2013-02-11 08:42:00,
2013-02-10 23:52:00,39.0,30.0,-100.00,NW,311,4.0,9.0,69,0.00,,,-99.99,0.000000,,2013-02-11 08:52:00,